Time;durP1;ratioP1;P1;durP2;ratioP2;P2;SDS_P1;SDS_P2;PMS_P1;PMS_P2;Temp;Humidity;BMP_temperature;BMP_pressure;BME280_temperature;BME280_humidity;BME280_pressure;Samples;Min_cycle;Max_cycle;Signal;HPM_P1;HPM_P2
2021/03/05 00:02:15;;;;;;;3.38;2.88;;;;;;;6.74;88.26;97799.63;5059401;28;20237;-77
2021/03/05 00:04:42;;;;;;;7.43;4.97;;;;;;;6.79;88.13;97807.28;5061303;28;20215;-78
2021/03/05 00:07:08;;;;;;;4.43;2.28;;;;;;;6.83;87.82;97813.22;5060907;28;20294;-77
2021/03/05 00:09:34;;;;;;;4.40;3.00;;;;;;;6.81;88.25;97809.84;5062129;28;20221;-77
2021/03/05 00:12:00;;;;;;;7.55;3.65;;;;;;;6.89;88.88;97807.84;5056395;28;20231;-76
2021/03/05 00:14:27;;;;;;;5.10;3.63;;;;;;;6.93;88.08;97817.28;5059773;28;20212;-77
2021/03/05 00:16:53;;;;;;;10.90;6.05;;;;;;;7.08;86.02;97809.03;5060045;28;20304;-77
2021/03/05 00:19:19;;;;;;;9.80;6.03;;;;;;;7.20;84.92;97812.16;5064541;28;20220;-78
2021/03/05 00:21:45;;;;;;;12.90;6.82;;;;;;;7.19;84.87;97813.91;5055477;28;20236;-77
2021/03/05 00:24:11;;;;;;;4.63;3.25;;;;;;;7.18;84.47;97812.19;5063240;28;20859;-77
2021/03/05 00:26:37;;;;;;;12.02;6.75;;;;;;;7.25;83.66;97810.25;5061343;28;20233;-77
2021/03/05 00:29:03;;;;;;;4.40;2.90;;;;;;;7.21;83.95;97824.22;5062729;28;20220;-77
2021/03/05 00:31:30;;;;;;;5.35;3.28;;;;;;;7.18;83.74;97827.75;5062805;28;20221;-78
2021/03/05 00:33:57;;;;;;;6.00;3.05;;;;;;;7.15;84.33;97825.28;5049178;28;20238;-77
2021/03/05 00:36:23;;;;;;;5.90;3.50;;;;;;;7.15;84.33;97830.44;5044758;28;20236;-77
2021/03/05 00:38:49;;;;;;;4.95;3.60;;;;;;;7.21;84.12;97827.66;5046351;28;20859;-80
2021/03/05 00:41:15;;;;;;;5.28;3.67;;;;;;;7.22;83.38;97831.09;5050944;28;20238;-76
2021/03/05 00:43:41;;;;;;;5.13;3.60;;;;;;;7.19;83.74;97836.41;5050249;28;20238;-78
2021/03/05 00:46:07;;;;;;;4.25;3.47;;;;;;;7.22;83.19;97837.13;5051078;28;20249;-76
2021/03/05 00:48:34;;;;;;;5.38;3.63;;;;;;;7.25;83.77;97844.00;5052077;28;20228;-77
2021/03/05 00:51:00;;;;;;;4.68;3.75;;;;;;;7.31;83.75;97846.38;5047210;28;20230;-76
2021/03/05 00:53:26;;;;;;;5.50;3.67;;;;;;;7.38;82.75;97847.91;5050096;28;20233;-76
2021/03/05 00:55:52;;;;;;;6.13;4.43;;;;;;;7.30;82.24;97847.31;5045443;28;20291;-76
2021/03/05 00:58:18;;;;;;;5.78;4.22;;;;;;;7.33;82.84;97852.38;5049719;28;20217;-76
2021/03/05 01:00:44;;;;;;;5.53;4.60;;;;;;;7.39;82.30;97854.81;5044484;28;20229;-77
2021/03/05 01:03:10;;;;;;;5.80;4.30;;;;;;;7.45;81.83;97858.97;5045983;28;20750;-77
2021/03/05 01:05:37;;;;;;;6.68;4.35;;;;;;;7.48;81.14;97864.91;5049046;28;20229;-77
2021/03/05 01:08:05;;;;;;;5.85;4.30;;;;;;;7.48;81.61;97867.50;5047516;28;20619;-78
2021/03/05 01:10:31;;;;;;;6.32;4.47;;;;;;;7.38;82.10;97865.22;5048206;28;20240;-74
2021/03/05 01:12:57;;;;;;;5.82;4.20;;;;;;;7.38;81.90;97873.84;5031269;28;20234;-75
2021/03/05 01:15:24;;;;;;;6.43;4.55;;;;;;;7.38;81.92;97868.66;5021394;28;20600;-76
2021/03/05 01:17:50;;;;;;;6.53;4.90;;;;;;;7.44;81.02;97868.47;5020002;28;20234;-77
2021/03/05 01:20:18;;;;;;;6.10;4.65;;;;;;;7.55;80.59;97882.88;5022117;28;20207;-76
2021/03/05 01:22:45;;;;;;;6.50;4.60;;;;;;;7.66;80.88;97878.19;5019426;28;20993;-75
2021/03/05 01:25:14;;;;;;;6.25;4.35;;;;;;;7.57;80.78;97884.50;5019782;28;20219;-75
2021/03/05 01:27:41;;;;;;;6.57;5.55;;;;;;;7.48;82.51;97885.66;5021588;28;20220;-75
2021/03/05 01:30:08;;;;;;;5.93;4.63;;;;;;;7.55;82.02;97882.88;5023354;28;20210;-78
2021/03/05 01:32:35;;;;;;;6.82;5.00;;;;;;;7.60;80.80;97888.78;5026260;28;20235;-76
2021/03/05 01:35:01;;;;;;;5.72;4.72;;;;;;;7.49;80.68;97887.34;5023473;28;20226;-76
2021/03/05 01:37:27;;;;;;;4.72;4.00;;;;;;;7.37;80.40;97885.13;5020689;28;20941;-76
2021/03/05 01:39:54;;;;;;;5.60;4.47;;;;;;;7.37;80.30;97898.13;5021338;28;20222;-75
2021/03/05 01:42:21;;;;;;;4.85;4.35;;;;;;;7.34;80.02;97893.84;5023771;28;20226;-75
2021/03/05 01:44:47;;;;;;;5.63;4.68;;;;;;;7.37;80.19;97903.31;5022613;28;20302;-75
2021/03/05 01:47:13;;;;;;;5.82;4.70;;;;;;;7.36;80.01;97909.38;5028402;28;20249;-77
2021/03/05 01:49:39;;;;;;;4.55;3.90;;;;;;;7.32;80.13;97905.19;5021697;28;20211;-77
2021/03/05 01:52:05;;;;;;;5.93;4.90;;;;;;;7.24;80.46;97913.19;5020860;28;20608;-75
2021/03/05 01:54:31;;;;;;;6.68;4.97;;;;;;;7.29;80.08;97910.44;5025294;28;20291;-76
2021/03/05 01:56:58;;;;;;;6.20;4.95;;;;;;;7.32;79.71;97921.59;5021662;28;20539;-76
2021/03/05 01:59:28;;;;;;;6.30;5.05;;;;;;;7.29;79.24;97918.22;5021095;28;21835;-76
2021/03/05 02:01:57;;;;;;;6.03;5.20;;;;;;;7.26;79.86;97928.69;5021199;28;20726;-76
2021/03/05 02:04:23;;;;;;;4.80;4.32;;;;;;;7.22;79.15;97924.50;5020267;28;20207;-76
2021/03/05 02:06:49;;;;;;;5.68;4.95;;;;;;;7.26;79.45;97926.09;5021241;28;20261;-75
2021/03/05 02:09:15;;;;;;;5.45;4.65;;;;;;;7.28;79.28;97930.38;5026524;28;20210;-78
2021/03/05 02:11:41;;;;;;;6.40;4.70;;;;;;;7.34;79.23;97926.75;5026379;28;20233;-77
2021/03/05 02:14:09;;;;;;;5.47;4.95;;;;;;;7.37;78.95;97939.63;5023334;28;20230;-75
2021/03/05 02:16:45;;;;;;;4.60;3.95;;;;;;;7.34;78.09;97931.94;5021537;28;20244;-76
2021/03/05 02:19:23;;;;;;;4.95;3.97;;;;;;;7.17;78.73;97934.13;5022382;28;20206;-75
2021/03/05 02:22:11;;;;;;;4.85;4.13;;;;;;;7.07;78.62;97937.00;5020765;28;20242;-77
2021/03/05 02:25:01;;;;;;;6.97;4.32;;;;;;;7.02;78.83;97936.28;5026140;28;20221;-77
2021/03/05 02:27:56;;;;;;;4.78;4.28;;;;;;;6.85;79.01;97935.88;5020764;28;20238;-76
2021/03/05 02:30:34;;;;;;;4.25;3.67;;;;;;;6.92;77.76;97940.03;5022153;28;20218;-76
2021/03/05 02:33:04;;;;;;;4.07;3.50;;;;;;;6.91;76.77;97956.47;5022251;28;20731;-76
2021/03/05 02:35:31;;;;;;;4.45;3.50;;;;;;;6.91;77.36;97951.28;5021025;28;20242;-76
2021/03/05 02:38:00;;;;;;;3.80;3.47;;;;;;;6.84;77.49;97953.19;5024234;28;20210;-75
2021/03/05 02:40:29;;;;;;;4.88;3.80;;;;;;;6.86;77.06;97958.34;5020990;28;20289;-76
2021/03/05 02:42:57;;;;;;;5.78;5.20;;;;;;;6.83;76.45;97973.97;5018423;28;20230;-76
2021/03/05 02:45:25;;;;;;;7.32;5.95;;;;;;;6.78;76.45;97968.91;5022637;28;20218;-76
2021/03/05 02:47:53;;;;;;;5.13;4.00;;;;;;;6.75;76.18;97971.59;5033058;28;20230;-76
2021/03/05 02:50:23;;;;;;;5.32;3.78;;;;;;;6.63;75.13;97983.09;5042509;28;20202;-75
2021/03/05 02:52:52;;;;;;;4.13;3.30;;;;;;;6.54;75.12;97984.22;5043883;28;20280;-76
2021/03/05 02:55:20;;;;;;;4.80;3.90;;;;;;;6.41;75.56;97992.31;5046737;28;20290;-75
2021/03/05 02:57:47;;;;;;;5.22;3.88;;;;;;;6.39;75.60;97988.91;5042092;28;20598;-76
2021/03/05 03:00:15;;;;;;;5.00;4.22;;;;;;;6.31;75.70;97997.72;5048403;28;20760;-75
2021/03/05 03:02:42;;;;;;;4.97;4.20;;;;;;;6.30;75.54;98001.19;5046204;28;20801;-76
2021/03/05 03:05:09;;;;;;;5.80;4.40;;;;;;;6.30;75.35;98003.78;5047099;28;20213;-76
2021/03/05 03:07:38;;;;;;;6.60;4.50;;;;;;;6.34;75.23;97996.78;5047678;28;20222;-76
2021/03/05 03:10:06;;;;;;;5.68;4.50;;;;;;;6.35;75.46;97999.34;5043074;28;20199;-76
2021/03/05 03:12:34;;;;;;;5.85;4.47;;;;;;;6.35;75.18;98003.66;5043850;28;20650;-75
2021/03/05 03:15:00;;;;;;;5.90;4.68;;;;;;;6.37;75.10;98007.91;5042788;28;20565;-77
2021/03/05 03:17:28;;;;;;;4.93;4.38;;;;;;;6.41;75.03;98013.03;5047162;28;20233;-75
2021/03/05 03:19:55;;;;;;;11.82;6.55;;;;;;;6.08;75.98;98020.69;5041092;28;20775;-76
2021/03/05 03:22:22;;;;;;;4.78;3.60;;;;;;;5.89;76.20;98018.50;5046659;28;20233;-76
2021/03/05 03:24:49;;;;;;;4.60;3.92;;;;;;;5.70;77.48;98027.56;5047268;28;20221;-76
2021/03/05 03:27:15;;;;;;;4.85;4.30;;;;;;;5.55;77.81;98021.81;5048146;28;20252;-76
2021/03/05 03:29:41;;;;;;;4.10;3.53;;;;;;;5.44;78.45;98026.34;5040348;28;20945;-76
2021/03/05 03:32:09;;;;;;;10.73;6.65;;;;;;;5.37;78.89;98032.53;5046327;28;20269;-75
2021/03/05 03:34:36;;;;;;;17.88;7.88;;;;;;;5.38;78.97;98022.13;5044762;28;20210;-76
2021/03/05 03:37:02;;;;;;;14.85;7.30;;;;;;;5.37;79.04;98032.53;5042592;28;20584;-77
2021/03/05 03:39:28;;;;;;;16.15;7.00;;;;;;;5.33;79.35;98030.84;5046916;28;20842;-75
2021/03/05 03:41:55;;;;;;;10.90;6.28;;;;;;;5.21;80.16;98043.13;5041411;28;20618;-75
2021/03/05 03:44:21;;;;;;;4.72;4.03;;;;;;;5.08;80.56;98041.66;5047942;28;20741;-75
2021/03/05 03:46:49;;;;;;;6.90;4.93;;;;;;;5.17;80.25;98046.66;5046673;28;20234;-77
2021/03/05 03:49:18;;;;;;;6.63;4.90;;;;;;;5.15;80.40;98051.03;5044173;28;20206;-76
2021/03/05 03:51:48;;;;;;;6.40;4.60;;;;;;;5.11;80.35;98051.09;5043030;28;20790;-76
2021/03/05 03:54:15;;;;;;;8.75;6.22;;;;;;;5.08;80.55;98057.19;5044692;28;20226;-75
2021/03/05 03:56:42;;;;;;;9.32;6.63;;;;;;;5.01;80.37;98055.59;5041509;28;20237;-76
2021/03/05 03:59:12;;;;;;;7.40;5.28;;;;;;;4.98;80.23;98060.81;5045344;28;20214;-75
2021/03/05 04:01:39;;;;;;;10.82;6.78;;;;;;;4.95;80.59;98060.88;5041843;28;20706;-75
2021/03/05 04:04:08;;;;;;;10.43;6.90;;;;;;;4.88;79.86;98065.28;5042812;28;20238;-75
2021/03/05 04:06:35;;;;;;;9.68;5.68;;;;;;;4.81;80.34;98074.03;5044475;28;20232;-75
2021/03/05 04:09:01;;;;;;;9.80;6.20;;;;;;;4.69;81.34;98080.25;5044611;28;20241;-75
2021/03/05 04:11:28;;;;;;;10.20;6.68;;;;;;;4.60;81.36;98077.81;5048465;28;20226;-76
2021/03/05 04:13:54;;;;;;;9.98;5.95;;;;;;;4.68;81.18;98086.28;5045142;28;20241;-76
2021/03/05 04:16:21;;;;;;;22.92;7.45;;;;;;;4.54;81.84;98089.09;5048530;28;20225;-75
2021/03/05 04:18:47;;;;;;;28.95;8.68;;;;;;;4.42;82.03;98089.28;5045831;28;20344;-76
2021/03/05 04:21:16;;;;;;;42.25;9.27;;;;;;;4.37;82.40;98084.16;5048156;28;20300;-75
2021/03/05 04:23:42;;;;;;;40.53;8.35;;;;;;;4.32;82.64;98096.31;5049057;28;20234;-75
2021/03/05 04:26:08;;;;;;;34.10;7.97;;;;;;;4.16;83.70;98093.09;5050488;28;20269;-77
2021/03/05 04:28:34;;;;;;;5.60;3.35;;;;;;;4.06;83.60;98106.97;5049110;28;20202;-76
2021/03/05 04:31:00;;;;;;;8.98;5.95;;;;;;;3.99;82.42;98113.13;5046265;28;20659;-76
2021/03/05 04:33:27;;;;;;;25.45;7.90;;;;;;;3.95;83.18;98112.31;5048271;28;20225;-75
2021/03/05 04:35:53;;;;;;;36.30;9.63;;;;;;;3.92;83.20;98121.81;5045982;28;20265;-76
2021/03/05 04:38:19;;;;;;;26.20;8.57;;;;;;;3.89;83.39;98117.53;5049574;28;20228;-76
2021/03/05 04:40:45;;;;;;;24.58;8.25;;;;;;;3.83;82.95;98123.63;5049347;28;20238;-77
2021/03/05 04:43:11;;;;;;;26.52;6.90;;;;;;;3.81;83.65;98132.25;5049497;28;20245;-75
2021/03/05 04:45:37;;;;;;;32.78;8.70;;;;;;;3.72;83.78;98138.38;5049951;28;20328;-75
2021/03/05 04:48:05;;;;;;;33.53;9.23;;;;;;;3.71;84.08;98138.38;5047638;28;20226;-75
2021/03/05 04:50:31;;;;;;;27.02;7.55;;;;;;;3.69;84.87;98140.13;5044957;28;20742;-76
2021/03/05 04:52:57;;;;;;;20.80;6.28;;;;;;;3.66;85.68;98147.03;5042018;28;20636;-76
2021/03/05 04:55:24;;;;;;;25.48;6.72;;;;;;;3.62;85.38;98155.69;5044597;28;20209;-76
2021/03/05 04:57:50;;;;;;;34.80;8.80;;;;;;;3.58;85.70;98150.56;5046163;28;20214;-76
2021/03/05 05:00:16;;;;;;;26.67;7.30;;;;;;;3.55;86.01;98158.31;5050148;28;20213;-76
2021/03/05 05:02:42;;;;;;;33.00;7.75;;;;;;;3.49;86.23;98151.50;5049244;28;20257;-75
2021/03/05 05:05:09;;;;;;;31.65;7.80;;;;;;;3.39;86.11;98152.47;5049231;28;20588;-75
2021/03/05 05:07:36;;;;;;;36.90;7.40;;;;;;;3.35;86.55;98161.97;5050253;28;20607;-76
2021/03/05 05:10:02;;;;;;;24.05;7.05;;;;;;;3.25;86.78;98166.38;5045684;28;20217;-75
2021/03/05 05:12:28;;;;;;;27.80;7.32;;;;;;;3.25;87.27;98168.94;5047486;28;20981;-76
2021/03/05 05:14:55;;;;;;;13.68;6.40;;;;;;;3.20;86.86;98168.13;5044214;28;20218;-76
2021/03/05 05:17:21;;;;;;;12.93;5.88;;;;;;;3.17;87.00;98170.72;5046185;28;20237;-75
2021/03/05 05:19:47;;;;;;;3.60;2.22;;;;;;;3.17;87.45;98168.13;5046645;28;20224;-75
2021/03/05 05:22:13;;;;;;;7.53;3.85;;;;;;;3.24;86.83;98172.38;5049295;28;20238;-76
2021/03/05 05:24:40;;;;;;;4.57;2.88;;;;;;;3.21;87.48;98168.97;5050367;28;20226;-77
2021/03/05 05:27:06;;;;;;;5.90;3.27;;;;;;;3.23;87.08;98178.38;5049110;28;20252;-75
2021/03/05 05:29:32;;;;;;;5.97;3.17;;;;;;;3.24;87.37;98174.94;5045529;28;20215;-76
2021/03/05 05:31:59;;;;;;;8.52;4.32;;;;;;;3.23;87.00;98178.38;5042831;28;20237;-75
2021/03/05 05:34:25;;;;;;;4.57;2.80;;;;;;;3.22;87.81;98181.84;5047209;28;20596;-75
2021/03/05 05:36:51;;;;;;;10.05;5.07;;;;;;;3.25;87.26;98180.94;5044905;28;20229;-76
2021/03/05 05:39:20;;;;;;;5.55;2.90;;;;;;;3.21;87.37;98190.44;5050808;28;20221;-76
2021/03/05 05:41:47;;;;;;;7.20;4.03;;;;;;;3.28;86.91;98192.09;5047435;28;20739;-75
2021/03/05 05:44:13;;;;;;;8.15;4.97;;;;;;;3.30;86.36;98188.66;5048940;28;20553;-75
2021/03/05 05:46:40;;;;;;;8.40;3.53;;;;;;;3.35;86.32;98192.91;5049236;28;20241;-76
2021/03/05 05:49:07;;;;;;;11.13;5.73;;;;;;;3.40;86.27;98188.56;5045098;28;20241;-75
2021/03/05 05:51:35;;;;;;;8.87;4.90;;;;;;;3.49;85.59;98195.34;5042468;28;20237;-75
2021/03/05 05:54:04;;;;;;;9.65;4.68;;;;;;;3.53;85.49;98197.03;5043065;28;20238;-76
2021/03/05 05:56:31;;;;;;;10.27;5.68;;;;;;;3.54;85.44;98203.91;5046570;28;20235;-76
2021/03/05 05:58:58;;;;;;;9.38;5.80;;;;;;;3.56;85.13;98202.16;5044710;28;20212;-75
2021/03/05 06:01:24;;;;;;;11.15;5.82;;;;;;;3.60;84.71;98214.19;5043885;28;20550;-75
2021/03/05 06:03:50;;;;;;;13.13;6.50;;;;;;;3.58;84.55;98213.31;5030260;28;20238;-75
2021/03/05 06:06:16;;;;;;;10.85;5.88;;;;;;;3.60;84.54;98209.03;5046378;28;20280;-76
2021/03/05 06:08:42;;;;;;;9.20;6.07;;;;;;;3.65;84.34;98212.38;5044508;28;20217;-76
2021/03/05 06:11:08;;;;;;;10.13;5.53;;;;;;;3.70;84.25;98219.25;5045448;28;20233;-76
2021/03/05 06:13:35;;;;;;;10.18;5.70;;;;;;;3.69;84.08;98222.69;5047998;28;20232;-75
2021/03/05 06:16:12;;;;;;;11.35;6.53;;;;;;;3.64;83.55;98225.31;5050281;28;20238;-76
2021/03/05 06:18:38;;;;;;;17.55;7.82;;;;;;;3.76;83.30;98225.19;5047774;28;20226;-75
2021/03/05 06:21:05;;;;;;;19.35;8.02;;;;;;;3.77;83.38;98238.97;5044956;28;20234;-76
2021/03/05 06:23:33;;;;;;;8.88;6.22;;;;;;;3.78;83.63;98238.91;5049074;28;20243;-75
2021/03/05 06:26:00;;;;;;;12.45;6.70;;;;;;;3.94;82.72;98244.78;5044588;28;20288;-75
2021/03/05 06:28:27;;;;;;;11.93;7.18;;;;;;;3.86;83.15;98251.78;5049242;28;20233;-76
2021/03/05 06:30:53;;;;;;;11.27;7.22;;;;;;;3.88;82.92;98252.59;5049587;28;20808;-75
2021/03/05 06:33:28;;;;;;;12.43;6.90;;;;;;;3.96;82.57;98255.94;5052212;28;20619;-76
2021/03/05 06:35:54;;;;;;;10.73;6.53;;;;;;;4.03;82.42;98256.75;5049737;28;20241;-76
2021/03/05 06:38:40;;;;;;;9.38;5.90;;;;;;;3.95;83.59;98259.41;5048097;28;20886;-76
2021/03/05 06:41:21;;;;;;;12.32;7.07;;;;;;;4.02;82.28;98266.19;5046964;28;20230;-75
2021/03/05 06:43:48;;;;;;;11.38;6.82;;;;;;;4.15;82.23;98258.31;5043059;28;20229;-77
2021/03/05 06:46:31;;;;;;;10.63;7.25;;;;;;;4.23;81.34;98270.28;5048094;28;20237;-76
2021/03/05 06:48:59;;;;;;;11.52;6.82;;;;;;;4.22;81.98;98270.31;5047646;28;20224;-75
2021/03/05 06:51:25;;;;;;;10.93;6.13;;;;;;;4.15;81.97;98279.81;5049314;28;20237;-75
2021/03/05 06:54:05;;;;;;;10.93;6.40;;;;;;;4.09;82.05;98279.91;5045574;28;20238;-75
2021/03/05 06:56:32;;;;;;;10.50;6.57;;;;;;;4.09;82.64;98284.22;5049094;28;20237;-76
2021/03/05 06:59:00;;;;;;;13.60;7.07;;;;;;;4.10;82.65;98285.91;5045072;28;20276;-75
2021/03/05 07:01:26;;;;;;;10.40;5.95;;;;;;;4.06;82.54;98298.00;5046631;28;20320;-76
2021/03/05 07:04:10;;;;;;;12.15;6.50;;;;;;;4.02;83.04;98298.91;5049694;28;20242;-76
2021/03/05 07:06:36;;;;;;;11.48;6.80;;;;;;;4.04;82.99;98300.63;5049323;28;20311;-75
2021/03/05 07:09:05;;;;;;;13.18;6.95;;;;;;;3.99;83.20;98294.63;5042834;28;20218;-75
2021/03/05 07:11:40;;;;;;;14.55;8.45;;;;;;;4.13;82.33;98307.38;5045371;28;20285;-75
2021/03/05 07:14:08;;;;;;;21.30;10.38;;;;;;;4.09;83.34;98310.88;5040813;28;20233;-77
2021/03/05 07:16:54;;;;;;;22.75;10.13;;;;;;;4.12;82.73;98312.56;5042928;28;20230;-76
2021/03/05 07:19:23;;;;;;;18.00;8.23;;;;;;;4.08;82.84;98310.88;5048781;28;20212;-75
2021/03/05 07:21:50;;;;;;;21.02;9.68;;;;;;;4.09;83.18;98315.19;5039887;28;20241;-77
2021/03/05 07:24:18;;;;;;;12.15;7.60;;;;;;;4.15;83.02;98315.97;5045731;28;20230;-75
2021/03/05 07:26:53;;;;;;;24.73;9.75;;;;;;;4.11;83.06;98316.88;5044294;28;20808;-76
2021/03/05 07:29:21;;;;;;;17.98;7.25;;;;;;;4.04;84.31;98317.81;5047228;28;20237;-85
2021/03/05 07:33:04;;;;;;;33.65;11.82;;;;;;;4.09;83.69;98330.69;5093963;27;20595;-77
2021/03/05 07:37:07;;;;;;;24.30;9.63;;;;;;;4.13;84.14;98346.13;5088385;27;20623;-75
2021/03/05 07:39:36;;;;;;;24.08;7.80;;;;;;;3.98;85.20;98338.53;5079827;28;20299;-75
2021/03/05 07:42:16;;;;;;;30.65;10.60;;;;;;;3.96;84.74;98346.28;5095671;27;20611;-75
2021/03/05 07:45:38;;;;;;;13.85;7.07;;;;;;;4.07;84.88;98343.59;5122587;27;20540;-75
2021/03/05 07:48:13;;;;;;;9.38;5.10;;;;;;;3.97;85.32;98353.16;5098545;28;20323;-75
2021/03/05 07:52:36;;;;;;;37.67;11.93;;;;;;;4.00;85.13;98352.28;5041055;28;20603;-73
2021/03/05 07:55:02;;;;;;;30.08;9.32;;;;;;;4.00;85.60;98358.28;5012986;28;20794;-73
2021/03/05 07:57:45;;;;;;;13.82;8.10;;;;;;;4.00;85.31;98358.28;5010602;28;20266;-74
2021/03/05 08:09:06;;;;;;;35.13;9.45;;;;;;;4.13;85.13;98371.09;5086747;27;20523;-75
2021/03/05 08:12:31;;;;;;;30.67;9.10;;;;;;;4.16;85.50;98368.50;5116427;27;20546;-74
2021/03/05 08:15:52;;;;;;;16.60;9.57;;;;;;;4.35;84.81;98367.41;5108240;27;20527;-75
2021/03/05 08:18:19;;;;;;;16.45;9.43;;;;;;;4.41;84.35;98367.38;5088156;28;20962;-75
2021/03/05 08:20:54;;;;;;;20.70;10.68;;;;;;;4.32;83.54;98377.81;5087934;27;20275;-76
2021/03/05 08:23:21;;;;;;;28.80;12.73;;;;;;;4.35;83.32;98380.34;5103573;27;20762;-75
2021/03/05 08:25:49;;;;;;;31.38;9.73;;;;;;;4.41;83.41;98385.47;5111372;27;20326;-75
2021/03/05 08:32:42;;;;;;;37.90;10.63;;;;;;;4.42;84.41;98391.47;5096657;27;20533;-76
2021/03/05 08:39:34;;;;;;;40.40;11.18;;;;;;;4.39;83.53;98392.38;5126833;27;21048;-74
2021/03/05 08:47:05;;;;;;;37.85;10.93;;;;;;;4.37;83.60;98399.25;5116687;27;21367;-75
2021/03/05 08:50:37;;;;;;;38.00;11.70;;;;;;;4.50;82.75;98399.97;5067162;27;20554;-76
2021/03/05 08:53:07;;;;;;;34.92;9.65;;;;;;;4.58;83.26;98399.94;5033792;28;20229;-76
2021/03/05 09:02:36;;;;;;;33.65;8.48;;;;;;;4.85;82.55;98416.00;5128270;27;20577;-75
2021/03/05 09:05:04;;;;;;;34.92;9.75;;;;;;;4.76;81.41;98407.47;5115632;27;20251;-76
2021/03/05 09:07:30;;;;;;;32.17;8.55;;;;;;;4.75;81.85;98417.84;5064482;28;20824;-75
2021/03/05 09:09:56;;;;;;;37.67;10.02;;;;;;;4.75;82.83;98416.09;5065177;28;20205;-75
2021/03/05 09:12:22;;;;;;;23.23;6.47;;;;;;;4.75;81.07;98405.75;5062990;28;20240;-76
2021/03/05 09:14:59;;;;;;;24.20;7.20;;;;;;;4.71;81.22;98404.09;5065677;28;20205;-75
2021/03/05 09:17:25;;;;;;;29.10;8.68;;;;;;;4.79;81.33;98422.94;5065191;28;20803;-76
2021/03/05 09:19:52;;;;;;;39.85;11.32;;;;;;;4.86;81.62;98413.38;5064366;28;20205;-75
2021/03/05 09:22:27;;;;;;;28.15;8.05;;;;;;;4.74;82.71;98416.97;5064064;28;20248;-77
2021/03/05 09:25:01;;;;;;;25.35;6.78;;;;;;;4.50;80.77;98423.22;5063575;28;20677;-75
2021/03/05 09:27:28;;;;;;;27.23;7.78;;;;;;;4.44;81.87;98426.72;5065985;28;20265;-75
2021/03/05 09:29:55;;;;;;;30.40;8.52;;;;;;;4.30;82.04;98425.16;5063779;28;20245;-75
2021/03/05 09:32:22;;;;;;;32.45;8.90;;;;;;;4.31;83.06;98430.31;5063115;28;20839;-76
2021/03/05 09:34:49;;;;;;;32.13;8.45;;;;;;;4.28;84.25;98430.31;5066257;28;20209;-75
2021/03/05 09:37:18;;;;;;;28.92;9.18;;;;;;;4.29;84.22;98437.22;5062506;28;20244;-75
2021/03/05 09:39:45;;;;;;;15.00;7.75;;;;;;;4.32;84.37;98436.31;5064612;28;20663;-75
2021/03/05 09:42:12;;;;;;;17.60;7.75;;;;;;;4.34;84.81;98438.03;5064498;28;20291;-75
2021/03/05 09:49:22;;;;;;;26.13;7.82;;;;;;;4.43;84.16;98447.44;5139656;27;20298;-76
2021/03/05 09:51:48;;;;;;;25.17;8.32;;;;;;;4.55;83.96;98442.13;5106842;27;20258;-75
2021/03/05 09:54:15;;;;;;;29.23;9.43;;;;;;;4.71;83.95;98449.75;5090753;28;20242;-76
2021/03/05 09:56:44;;;;;;;34.88;9.95;;;;;;;4.83;82.81;98445.31;5092317;28;20247;-75
2021/03/05 09:59:10;;;;;;;28.42;9.02;;;;;;;4.91;82.52;98452.97;5091428;28;20216;-76
2021/03/05 10:02:37;;;;;;;35.03;9.77;;;;;;;5.02;82.38;98450.28;5108072;27;20561;-76
2021/03/05 10:16:53;;;;;;;24.20;7.60;;;;;;;5.21;79.01;98487.13;5090731;27;20531;-75
2021/03/05 10:22:32;;;;;;;19.65;5.97;;;;;;;5.05;76.60;98481.25;5084700;27;20533;-75
2021/03/05 10:27:15;;;;;;;26.80;7.63;;;;;;;5.20;77.29;98496.59;5098071;27;20583;-75
2021/03/05 10:34:26;;;;;;;37.25;9.02;;;;;;;5.42;78.94;98501.50;5120624;27;20375;-75
2021/03/05 10:36:54;;;;;;;20.70;8.45;;;;;;;5.43;77.21;98512.72;5107143;27;20266;-77
2021/03/05 10:43:09;;;;;;;21.77;6.10;;;;;;;5.50;77.68;98520.41;5093964;27;20583;-75
2021/03/05 10:45:35;;;;;;;22.23;6.65;;;;;;;5.59;76.42;98530.63;5089955;28;20243;-76
2021/03/05 10:51:30;;;;;;;23.75;6.72;;;;;;;5.57;73.63;98537.56;5117750;27;20584;-75
2021/03/05 10:54:45;;;;;;;27.70;7.90;;;;;;;5.57;72.23;98531.53;5099954;27;20515;-75
2021/03/05 10:57:13;;;;;;;23.80;6.85;;;;;;;5.55;72.43;98539.31;5104949;27;20227;-77
2021/03/05 11:02:15;;;;;;;29.75;7.55;;;;;;;5.62;72.33;98547.00;5080696;27;20881;-77
2021/03/05 11:04:42;;;;;;;22.30;6.32;;;;;;;5.70;73.45;98552.94;5053363;28;20793;-76
2021/03/05 11:07:09;;;;;;;17.95;5.05;;;;;;;5.70;71.85;98558.13;5056933;28;20236;-75
2021/03/05 11:09:35;;;;;;;21.33;6.10;;;;;;;5.74;71.96;98560.63;5055441;28;20205;-76
2021/03/05 11:12:01;;;;;;;17.42;5.43;;;;;;;5.80;70.08;98564.88;5051606;28;21167;-77
2021/03/05 11:14:28;;;;;;;36.10;9.02;;;;;;;5.76;70.45;98570.97;5051767;28;20274;-78
2021/03/05 11:16:55;;;;;;;35.75;8.65;;;;;;;5.78;71.17;98569.22;5050396;28;20229;-77
2021/03/05 11:19:23;;;;;;;23.27;7.05;;;;;;;5.69;69.78;98572.78;5052261;28;20212;-76
2021/03/05 11:21:49;;;;;;;25.83;6.90;;;;;;;5.72;70.35;98577.06;5051419;28;20284;-78
2021/03/05 11:24:16;;;;;;;21.45;5.20;;;;;;;5.74;69.96;98573.59;5054847;28;20260;-75
2021/03/05 11:26:42;;;;;;;24.92;7.03;;;;;;;5.73;69.50;98584.78;5051799;28;20267;-76
2021/03/05 11:29:09;;;;;;;25.10;6.63;;;;;;;5.75;67.44;98579.59;5054614;28;20213;-76
2021/03/05 11:31:35;;;;;;;26.15;6.80;;;;;;;5.82;67.74;98572.63;5053345;28;20237;-75
2021/03/05 11:34:01;;;;;;;25.50;6.05;;;;;;;5.76;66.83;98578.75;5054909;28;20263;-76
2021/03/05 11:36:29;;;;;;;26.98;6.97;;;;;;;5.77;67.27;98585.63;5053763;28;20683;-75
2021/03/05 11:38:55;;;;;;;27.60;7.03;;;;;;;5.82;66.13;98583.00;5054457;28;20283;-76
2021/03/05 11:41:23;;;;;;;28.15;7.53;;;;;;;5.90;66.21;98582.03;5053625;28;20708;-77
2021/03/05 11:43:51;;;;;;;35.50;8.73;;;;;;;5.93;65.99;98576.78;5051867;28;20710;-76
2021/03/05 11:46:22;;;;;;;25.20;6.65;;;;;;;6.07;64.75;98578.38;5052412;28;20336;-77
2021/03/05 11:48:49;;;;;;;18.90;5.15;;;;;;;6.07;64.59;98583.56;5053357;28;20298;-76
2021/03/05 11:51:16;;;;;;;23.42;6.28;;;;;;;6.01;64.03;98579.31;5055023;28;20241;-75
2021/03/05 11:53:43;;;;;;;21.20;5.78;;;;;;;6.01;63.38;98583.63;5054784;28;21148;-75
2021/03/05 11:56:10;;;;;;;30.13;7.13;;;;;;;6.13;62.99;98583.47;5054774;28;20311;-75
2021/03/05 11:58:36;;;;;;;23.55;6.63;;;;;;;6.30;62.63;98591.84;5054768;28;20571;-75
2021/03/05 12:01:03;;;;;;;31.92;8.02;;;;;;;6.77;62.76;98588.59;5051465;28;20285;-75
2021/03/05 12:03:29;;;;;;;29.80;7.60;;;;;;;7.19;61.93;98584.41;5055064;28;20238;-76
2021/03/05 12:05:56;;;;;;;32.13;7.82;;;;;;;7.80;60.43;98590.16;5052826;28;20229;-76
2021/03/05 12:08:22;;;;;;;25.52;6.35;;;;;;;8.44;58.75;98589.69;5054467;28;20222;-76
2021/03/05 12:10:49;;;;;;;5.22;3.13;;;;;;;8.87;56.89;98588.66;5052051;28;20264;-75
2021/03/05 12:13:16;;;;;;;4.53;2.47;;;;;;;9.18;55.74;98598.28;5042415;28;20237;-75
2021/03/05 12:15:42;;;;;;;4.65;2.55;;;;;;;9.51;55.45;98600.91;5037462;28;20237;-76
2021/03/05 12:18:09;;;;;;;3.58;2.70;;;;;;;9.29;54.88;98593.66;5041852;28;20379;-76
2021/03/05 12:20:35;;;;;;;4.38;2.40;;;;;;;9.57;52.80;98604.19;5040601;28;20765;-76
2021/03/05 12:23:01;;;;;;;4.00;2.63;;;;;;;9.69;52.79;98599.56;5040491;28;20652;-75
2021/03/05 12:25:28;;;;;;;3.70;2.63;;;;;;;10.14;52.09;98602.56;5040561;28;20242;-76
2021/03/05 12:27:55;;;;;;;4.63;2.53;;;;;;;10.49;50.16;98605.88;5040631;28;20816;-75
2021/03/05 12:30:22;;;;;;;3.38;2.28;;;;;;;10.38;51.11;98605.38;5039473;28;20236;-75
2021/03/05 12:32:49;;;;;;;3.08;2.42;;;;;;;10.18;50.60;98614.63;5038071;28;20234;-75
2021/03/05 12:35:16;;;;;;;3.30;2.05;;;;;;;10.14;49.75;98605.16;5040685;28;20625;-76
2021/03/05 12:37:42;;;;;;;3.88;2.58;;;;;;;9.74;50.28;98608.94;5040226;28;20210;-76
2021/03/05 12:40:09;;;;;;;3.03;1.88;;;;;;;9.37;50.05;98609.91;5040371;28;20307;-76
2021/03/05 12:42:36;;;;;;;4.85;2.78;;;;;;;9.13;50.92;98610.56;5040448;28;20248;-75
2021/03/05 12:45:05;;;;;;;3.22;1.88;;;;;;;8.56;51.04;98615.38;5038263;28;20231;-78
2021/03/05 12:47:31;;;;;;;3.65;2.05;;;;;;;8.72;52.02;98618.50;5039543;28;20234;-75
2021/03/05 12:49:57;;;;;;;3.75;2.38;;;;;;;9.03;53.00;98615.16;5041175;28;20250;-75
2021/03/05 12:52:24;;;;;;;2.58;1.92;;;;;;;9.64;50.76;98618.75;5039433;28;20241;-76
2021/03/05 12:54:50;;;;;;;3.72;2.55;;;;;;;9.86;50.46;98618.16;5040034;28;20301;-76
2021/03/05 12:57:16;;;;;;;3.30;2.17;;;;;;;9.75;49.99;98628.88;5040065;28;20237;-77